sensor_id;sensor_type;location;lat;lon;timestamp;P1;durP1;ratioP1;P2;durP2;ratioP2
46719;SDS011;32452;51.382;-0.002;2023-04-23T00:03:17;12.65;;;3.15;;
46719;SDS011;32452;51.382;-0.002;2023-04-23T00:06:35;12.05;;;4.72;;
46719;SDS011;32452;51.382;-0.002;2023-04-23T00:09:33;10.65;;;2.90;;
46719;SDS011;32452;51.382;-0.002;2023-04-23T00:12:34;9.55;;;2.63;;
46719;SDS011;32452;51.382;-0.002;2023-04-23T00:15:46;9.30;;;2.47;;
46719;SDS011;32452;51.382;-0.002;2023-04-23T00:18:45;7.32;;;2.28;;
46719;SDS011;32452;51.382;-0.002;2023-04-23T00:25:37;8.90;;;2.53;;
46719;SDS011;32452;51.382;-0.002;2023-04-23T00:28:27;8.85;;;2.30;;
46719;SDS011;32452;51.382;-0.002;2023-04-23T00:31:15;6.75;;;1.80;;
46719;SDS011;32452;51.382;-0.002;2023-04-23T00:34:14;11.25;;;2.67;;
46719;SDS011;32452;51.382;-0.002;2023-04-23T00:40:45;6.72;;;2.08;;
46719;SDS011;32452;51.382;-0.002;2023-04-23T00:43:38;11.15;;;1.58;;
46719;SDS011;32452;51.382;-0.002;2023-04-23T00:46:30;11.40;;;2.35;;
46719;SDS011;32452;51.382;-0.002;2023-04-23T00:49:27;11.48;;;2.10;;
46719;SDS011;32452;51.382;-0.002;2023-04-23T00:52:23;11.38;;;2.30;;
46719;SDS011;32452;51.382;-0.002;2023-04-23T00:55:23;12.93;;;2.58;;
46719;SDS011;32452;51.382;-0.002;2023-04-23T00:59:00;11.82;;;3.45;;
46719;SDS011;32452;51.382;-0.002;2023-04-23T01:01:52;28.27;;;4.10;;
46719;SDS011;32452;51.382;-0.002;2023-04-23T01:04:39;11.25;;;1.77;;
46719;SDS011;32452;51.382;-0.002;2023-04-23T01:07:27;11.80;;;3.10;;
46719;SDS011;32452;51.382;-0.002;2023-04-23T01:10:13;11.98;;;2.00;;
46719;SDS011;32452;51.382;-0.002;2023-04-23T01:12:59;13.52;;;2.65;;
46719;SDS011;32452;51.382;-0.002;2023-04-23T01:15:45;10.07;;;2.33;;
46719;SDS011;32452;51.382;-0.002;2023-04-23T01:18:31;7.90;;;1.90;;
46719;SDS011;32452;51.382;-0.002;2023-04-23T01:21:18;15.45;;;3.45;;
46719;SDS011;32452;51.382;-0.002;2023-04-23T01:24:07;16.40;;;3.10;;
46719;SDS011;32452;51.382;-0.002;2023-04-23T01:26:54;10.30;;;2.63;;
46719;SDS011;32452;51.382;-0.002;2023-04-23T01:29:42;14.25;;;2.47;;
46719;SDS011;32452;51.382;-0.002;2023-04-23T01:32:29;7.63;;;2.22;;
46719;SDS011;32452;51.382;-0.002;2023-04-23T01:35:18;11.40;;;3.00;;
46719;SDS011;32452;51.382;-0.002;2023-04-23T01:38:04;8.63;;;2.38;;
46719;SDS011;32452;51.382;-0.002;2023-04-23T01:40:53;8.15;;;2.83;;
46719;SDS011;32452;51.382;-0.002;2023-04-23T01:43:42;8.43;;;2.30;;
46719;SDS011;32452;51.382;-0.002;2023-04-23T01:46:29;7.45;;;1.80;;
46719;SDS011;32452;51.382;-0.002;2023-04-23T01:49:15;5.07;;;1.80;;
46719;SDS011;32452;51.382;-0.002;2023-04-23T01:52:01;7.60;;;1.77;;
46719;SDS011;32452;51.382;-0.002;2023-04-23T01:54:50;5.55;;;1.77;;
46719;SDS011;32452;51.382;-0.002;2023-04-23T01:57:39;7.25;;;1.30;;
46719;SDS011;32452;51.382;-0.002;2023-04-23T02:00:25;9.55;;;1.90;;
46719;SDS011;32452;51.382;-0.002;2023-04-23T02:03:11;12.48;;;2.00;;
46719;SDS011;32452;51.382;-0.002;2023-04-23T02:06:00;10.10;;;2.20;;
46719;SDS011;32452;51.382;-0.002;2023-04-23T02:08:49;8.77;;;1.75;;
46719;SDS011;32452;51.382;-0.002;2023-04-23T02:11:38;8.85;;;1.75;;
46719;SDS011;32452;51.382;-0.002;2023-04-23T02:14:24;8.13;;;1.95;;
46719;SDS011;32452;51.382;-0.002;2023-04-23T02:17:10;8.45;;;2.72;;
46719;SDS011;32452;51.382;-0.002;2023-04-23T02:19:56;7.60;;;1.70;;
46719;SDS011;32452;51.382;-0.002;2023-04-23T02:22:42;10.10;;;2.30;;
46719;SDS011;32452;51.382;-0.002;2023-04-23T02:25:28;9.38;;;2.13;;
46719;SDS011;32452;51.382;-0.002;2023-04-23T02:28:16;12.05;;;2.10;;
46719;SDS011;32452;51.382;-0.002;2023-04-23T02:31:01;8.07;;;2.45;;
46719;SDS011;32452;51.382;-0.002;2023-04-23T02:33:47;11.40;;;2.95;;
46719;SDS011;32452;51.382;-0.002;2023-04-23T02:36:34;8.32;;;1.88;;
46719;SDS011;32452;51.382;-0.002;2023-04-23T02:39:21;11.93;;;2.42;;
46719;SDS011;32452;51.382;-0.002;2023-04-23T02:42:06;12.98;;;2.22;;
46719;SDS011;32452;51.382;-0.002;2023-04-23T02:44:52;28.33;;;4.63;;
46719;SDS011;32452;51.382;-0.002;2023-04-23T02:47:38;13.75;;;2.90;;
46719;SDS011;32452;51.382;-0.002;2023-04-23T02:50:24;11.10;;;2.72;;
46719;SDS011;32452;51.382;-0.002;2023-04-23T02:53:10;10.95;;;2.30;;
46719;SDS011;32452;51.382;-0.002;2023-04-23T02:55:56;17.63;;;2.55;;
46719;SDS011;32452;51.382;-0.002;2023-04-23T02:58:42;13.75;;;2.45;;
46719;SDS011;32452;51.382;-0.002;2023-04-23T03:01:28;21.13;;;3.35;;
46719;SDS011;32452;51.382;-0.002;2023-04-23T03:04:14;10.18;;;2.20;;
46719;SDS011;32452;51.382;-0.002;2023-04-23T03:07:00;11.45;;;2.95;;
46719;SDS011;32452;51.382;-0.002;2023-04-23T03:09:46;11.35;;;2.08;;
46719;SDS011;32452;51.382;-0.002;2023-04-23T03:12:31;14.52;;;3.88;;
46719;SDS011;32452;51.382;-0.002;2023-04-23T03:15:17;15.73;;;2.65;;
46719;SDS011;32452;51.382;-0.002;2023-04-23T03:18:04;7.57;;;2.40;;
46719;SDS011;32452;51.382;-0.002;2023-04-23T03:20:52;8.73;;;2.75;;
46719;SDS011;32452;51.382;-0.002;2023-04-23T03:23:37;17.13;;;4.00;;
46719;SDS011;32452;51.382;-0.002;2023-04-23T03:26:23;10.70;;;2.95;;
46719;SDS011;32452;51.382;-0.002;2023-04-23T03:29:08;9.93;;;2.00;;
46719;SDS011;32452;51.382;-0.002;2023-04-23T03:31:54;9.80;;;2.65;;
46719;SDS011;32452;51.382;-0.002;2023-04-23T03:34:40;14.98;;;2.08;;
46719;SDS011;32452;51.382;-0.002;2023-04-23T03:37:26;9.05;;;2.20;;
46719;SDS011;32452;51.382;-0.002;2023-04-23T03:40:12;13.48;;;3.35;;
46719;SDS011;32452;51.382;-0.002;2023-04-23T03:42:58;12.02;;;2.05;;
46719;SDS011;32452;51.382;-0.002;2023-04-23T03:45:44;13.23;;;2.42;;
46719;SDS011;32452;51.382;-0.002;2023-04-23T03:48:29;17.33;;;2.78;;
46719;SDS011;32452;51.382;-0.002;2023-04-23T03:51:15;11.30;;;2.00;;
46719;SDS011;32452;51.382;-0.002;2023-04-23T03:54:00;8.93;;;2.78;;
46719;SDS011;32452;51.382;-0.002;2023-04-23T03:56:46;18.60;;;2.53;;
46719;SDS011;32452;51.382;-0.002;2023-04-23T03:59:32;10.25;;;2.22;;
46719;SDS011;32452;51.382;-0.002;2023-04-23T04:02:18;15.93;;;2.45;;
46719;SDS011;32452;51.382;-0.002;2023-04-23T04:05:04;16.48;;;2.47;;
46719;SDS011;32452;51.382;-0.002;2023-04-23T04:07:51;12.60;;;2.58;;
46719;SDS011;32452;51.382;-0.002;2023-04-23T04:10:36;15.43;;;2.55;;
46719;SDS011;32452;51.382;-0.002;2023-04-23T04:13:22;12.15;;;2.35;;
46719;SDS011;32452;51.382;-0.002;2023-04-23T04:16:10;11.32;;;2.67;;
46719;SDS011;32452;51.382;-0.002;2023-04-23T04:18:55;9.23;;;2.42;;
46719;SDS011;32452;51.382;-0.002;2023-04-23T04:21:41;14.30;;;2.90;;
46719;SDS011;32452;51.382;-0.002;2023-04-23T04:24:26;11.73;;;2.67;;
46719;SDS011;32452;51.382;-0.002;2023-04-23T04:27:13;11.07;;;2.33;;
46719;SDS011;32452;51.382;-0.002;2023-04-23T04:29:59;10.18;;;2.80;;
46719;SDS011;32452;51.382;-0.002;2023-04-23T04:32:49;14.52;;;3.38;;
46719;SDS011;32452;51.382;-0.002;2023-04-23T04:35:35;15.32;;;3.03;;
46719;SDS011;32452;51.382;-0.002;2023-04-23T04:38:21;17.55;;;4.13;;
46719;SDS011;32452;51.382;-0.002;2023-04-23T04:41:06;12.77;;;3.83;;
46719;SDS011;32452;51.382;-0.002;2023-04-23T04:43:52;10.68;;;2.95;;
46719;SDS011;32452;51.382;-0.002;2023-04-23T04:46:42;11.35;;;3.45;;
46719;SDS011;32452;51.382;-0.002;2023-04-23T04:49:27;13.38;;;2.92;;
46719;SDS011;32452;51.382;-0.002;2023-04-23T04:52:13;13.57;;;3.05;;
46719;SDS011;32452;51.382;-0.002;2023-04-23T04:54:59;18.95;;;3.67;;
46719;SDS011;32452;51.382;-0.002;2023-04-23T04:57:45;12.27;;;2.75;;
46719;SDS011;32452;51.382;-0.002;2023-04-23T05:00:30;16.17;;;3.25;;
46719;SDS011;32452;51.382;-0.002;2023-04-23T05:03:17;10.68;;;2.88;;
46719;SDS011;32452;51.382;-0.002;2023-04-23T05:06:03;12.13;;;3.08;;
46719;SDS011;32452;51.382;-0.002;2023-04-23T05:08:49;9.52;;;2.40;;
46719;SDS011;32452;51.382;-0.002;2023-04-23T05:11:35;9.95;;;2.63;;
46719;SDS011;32452;51.382;-0.002;2023-04-23T05:14:21;13.85;;;2.80;;
46719;SDS011;32452;51.382;-0.002;2023-04-23T05:17:06;15.35;;;3.15;;
46719;SDS011;32452;51.382;-0.002;2023-04-23T05:19:52;15.05;;;2.95;;
46719;SDS011;32452;51.382;-0.002;2023-04-23T05:22:39;14.10;;;2.95;;
46719;SDS011;32452;51.382;-0.002;2023-04-23T05:25:26;11.98;;;2.90;;
46719;SDS011;32452;51.382;-0.002;2023-04-23T05:28:12;13.18;;;3.63;;
46719;SDS011;32452;51.382;-0.002;2023-04-23T05:30:59;17.73;;;3.47;;
46719;SDS011;32452;51.382;-0.002;2023-04-23T05:33:44;17.35;;;2.92;;
46719;SDS011;32452;51.382;-0.002;2023-04-23T05:36:34;13.13;;;2.42;;
46719;SDS011;32452;51.382;-0.002;2023-04-23T05:39:20;21.73;;;3.90;;
46719;SDS011;32452;51.382;-0.002;2023-04-23T05:42:05;14.18;;;2.75;;
46719;SDS011;32452;51.382;-0.002;2023-04-23T05:44:51;11.60;;;2.78;;
46719;SDS011;32452;51.382;-0.002;2023-04-23T05:47:36;13.27;;;3.03;;
46719;SDS011;32452;51.382;-0.002;2023-04-23T05:50:22;9.80;;;2.70;;
46719;SDS011;32452;51.382;-0.002;2023-04-23T05:53:08;22.83;;;4.93;;
46719;SDS011;32452;51.382;-0.002;2023-04-23T05:55:54;13.48;;;2.63;;
46719;SDS011;32452;51.382;-0.002;2023-04-23T05:58:40;9.40;;;2.40;;
46719;SDS011;32452;51.382;-0.002;2023-04-23T06:01:25;8.85;;;2.55;;
46719;SDS011;32452;51.382;-0.002;2023-04-23T06:04:11;10.82;;;2.03;;
46719;SDS011;32452;51.382;-0.002;2023-04-23T06:06:57;11.95;;;2.30;;
46719;SDS011;32452;51.382;-0.002;2023-04-23T06:09:43;10.00;;;1.92;;
46719;SDS011;32452;51.382;-0.002;2023-04-23T06:12:28;13.07;;;2.85;;
46719;SDS011;32452;51.382;-0.002;2023-04-23T06:15:14;13.02;;;2.72;;
46719;SDS011;32452;51.382;-0.002;2023-04-23T06:17:59;13.90;;;2.22;;
46719;SDS011;32452;51.382;-0.002;2023-04-23T06:20:46;14.18;;;2.53;;
46719;SDS011;32452;51.382;-0.002;2023-04-23T06:23:32;12.95;;;2.20;;
46719;SDS011;32452;51.382;-0.002;2023-04-23T06:26:18;11.13;;;2.03;;
46719;SDS011;32452;51.382;-0.002;2023-04-23T06:29:04;12.45;;;2.63;;
46719;SDS011;32452;51.382;-0.002;2023-04-23T06:31:49;11.68;;;2.58;;
46719;SDS011;32452;51.382;-0.002;2023-04-23T06:34:35;7.68;;;2.30;;
46719;SDS011;32452;51.382;-0.002;2023-04-23T06:37:33;12.32;;;2.40;;
46719;SDS011;32452;51.382;-0.002;2023-04-23T06:40:19;11.98;;;2.85;;
46719;SDS011;32452;51.382;-0.002;2023-04-23T06:43:04;9.48;;;2.10;;
46719;SDS011;32452;51.382;-0.002;2023-04-23T06:45:51;18.42;;;3.00;;
46719;SDS011;32452;51.382;-0.002;2023-04-23T06:48:37;16.05;;;2.60;;
46719;SDS011;32452;51.382;-0.002;2023-04-23T06:51:24;7.45;;;2.33;;
46719;SDS011;32452;51.382;-0.002;2023-04-23T06:54:10;9.23;;;2.10;;
46719;SDS011;32452;51.382;-0.002;2023-04-23T06:56:56;7.68;;;2.42;;
46719;SDS011;32452;51.382;-0.002;2023-04-23T06:59:41;9.13;;;2.20;;
46719;SDS011;32452;51.382;-0.002;2023-04-23T07:02:27;11.65;;;3.03;;
46719;SDS011;32452;51.382;-0.002;2023-04-23T07:05:13;10.38;;;1.90;;
46719;SDS011;32452;51.382;-0.002;2023-04-23T07:08:01;8.05;;;2.30;;
46719;SDS011;32452;51.382;-0.002;2023-04-23T07:10:46;8.65;;;1.40;;
46719;SDS011;32452;51.382;-0.002;2023-04-23T07:13:32;9.55;;;2.25;;
46719;SDS011;32452;51.382;-0.002;2023-04-23T07:16:17;8.00;;;2.22;;
46719;SDS011;32452;51.382;-0.002;2023-04-23T07:19:06;7.70;;;1.90;;
46719;SDS011;32452;51.382;-0.002;2023-04-23T07:21:51;10.43;;;1.85;;
46719;SDS011;32452;51.382;-0.002;2023-04-23T07:24:37;10.15;;;2.45;;
46719;SDS011;32452;51.382;-0.002;2023-04-23T07:27:23;7.28;;;1.90;;
46719;SDS011;32452;51.382;-0.002;2023-04-23T07:30:09;12.93;;;2.33;;
46719;SDS011;32452;51.382;-0.002;2023-04-23T07:32:55;6.32;;;1.50;;
46719;SDS011;32452;51.382;-0.002;2023-04-23T07:35:40;7.38;;;2.03;;
46719;SDS011;32452;51.382;-0.002;2023-04-23T07:38:26;7.60;;;1.58;;
46719;SDS011;32452;51.382;-0.002;2023-04-23T07:41:11;7.63;;;2.10;;
46719;SDS011;32452;51.382;-0.002;2023-04-23T07:43:57;8.52;;;1.70;;
46719;SDS011;32452;51.382;-0.002;2023-04-23T07:46:43;7.68;;;1.88;;
46719;SDS011;32452;51.382;-0.002;2023-04-23T07:49:29;10.93;;;2.05;;
46719;SDS011;32452;51.382;-0.002;2023-04-23T07:52:15;6.97;;;2.03;;
46719;SDS011;32452;51.382;-0.002;2023-04-23T07:55:01;13.95;;;1.98;;
46719;SDS011;32452;51.382;-0.002;2023-04-23T07:57:47;5.82;;;1.50;;
46719;SDS011;32452;51.382;-0.002;2023-04-23T08:00:32;3.08;;;1.60;;
46719;SDS011;32452;51.382;-0.002;2023-04-23T08:03:20;8.60;;;1.67;;
46719;SDS011;32452;51.382;-0.002;2023-04-23T08:06:06;14.02;;;2.45;;
46719;SDS011;32452;51.382;-0.002;2023-04-23T08:08:53;8.88;;;2.00;;
46719;SDS011;32452;51.382;-0.002;2023-04-23T08:11:40;13.48;;;2.10;;
46719;SDS011;32452;51.382;-0.002;2023-04-23T08:14:25;6.07;;;1.48;;
46719;SDS011;32452;51.382;-0.002;2023-04-23T08:17:11;11.88;;;2.22;;
46719;SDS011;32452;51.382;-0.002;2023-04-23T08:19:57;12.32;;;2.40;;
46719;SDS011;32452;51.382;-0.002;2023-04-23T08:22:42;9.63;;;2.00;;
46719;SDS011;32452;51.382;-0.002;2023-04-23T08:25:29;12.48;;;3.13;;
46719;SDS011;32452;51.382;-0.002;2023-04-23T08:28:14;10.00;;;2.38;;
46719;SDS011;32452;51.382;-0.002;2023-04-23T08:31:00;14.10;;;2.67;;
46719;SDS011;32452;51.382;-0.002;2023-04-23T08:33:59;8.38;;;2.42;;
46719;SDS011;32452;51.382;-0.002;2023-04-23T08:36:45;11.25;;;2.42;;
46719;SDS011;32452;51.382;-0.002;2023-04-23T08:39:33;14.65;;;2.92;;
46719;SDS011;32452;51.382;-0.002;2023-04-23T08:42:22;15.73;;;2.65;;
46719;SDS011;32452;51.382;-0.002;2023-04-23T08:45:21;16.05;;;3.13;;
46719;SDS011;32452;51.382;-0.002;2023-04-23T08:48:08;12.55;;;4.25;;
46719;SDS011;32452;51.382;-0.002;2023-04-23T08:50:56;14.18;;;2.85;;
46719;SDS011;32452;51.382;-0.002;2023-04-23T08:53:49;12.23;;;2.80;;
46719;SDS011;32452;51.382;-0.002;2023-04-23T08:56:37;10.25;;;3.25;;
46719;SDS011;32452;51.382;-0.002;2023-04-23T08:59:29;13.93;;;3.17;;
46719;SDS011;32452;51.382;-0.002;2023-04-23T09:02:19;13.23;;;2.55;;
46719;SDS011;32452;51.382;-0.002;2023-04-23T09:05:05;8.18;;;2.40;;
46719;SDS011;32452;51.382;-0.002;2023-04-23T09:07:52;11.90;;;3.17;;
46719;SDS011;32452;51.382;-0.002;2023-04-23T09:10:39;11.10;;;2.47;;
46719;SDS011;32452;51.382;-0.002;2023-04-23T09:13:27;10.60;;;2.42;;
46719;SDS011;32452;51.382;-0.002;2023-04-23T09:16:15;10.75;;;3.97;;
46719;SDS011;32452;51.382;-0.002;2023-04-23T09:19:01;11.55;;;2.53;;
46719;SDS011;32452;51.382;-0.002;2023-04-23T09:21:47;14.30;;;2.97;;
46719;SDS011;32452;51.382;-0.002;2023-04-23T09:24:32;11.60;;;3.47;;
46719;SDS011;32452;51.382;-0.002;2023-04-23T09:27:22;13.65;;;2.95;;
46719;SDS011;32452;51.382;-0.002;2023-04-23T09:30:10;12.80;;;2.55;;
46719;SDS011;32452;51.382;-0.002;2023-04-23T09:32:56;14.65;;;3.28;;
46719;SDS011;32452;51.382;-0.002;2023-04-23T09:35:42;9.38;;;2.25;;
46719;SDS011;32452;51.382;-0.002;2023-04-23T09:38:28;15.45;;;3.25;;
46719;SDS011;32452;51.382;-0.002;2023-04-23T09:41:23;11.40;;;2.88;;
46719;SDS011;32452;51.382;-0.002;2023-04-23T09:44:10;9.82;;;2.90;;
46719;SDS011;32452;51.382;-0.002;2023-04-23T09:47:04;9.25;;;3.10;;
46719;SDS011;32452;51.382;-0.002;2023-04-23T09:49:53;10.45;;;3.00;;
46719;SDS011;32452;51.382;-0.002;2023-04-23T09:52:40;8.43;;;2.83;;
46719;SDS011;32452;51.382;-0.002;2023-04-23T09:55:33;14.93;;;2.40;;
46719;SDS011;32452;51.382;-0.002;2023-04-23T09:58:22;13.02;;;3.40;;
46719;SDS011;32452;51.382;-0.002;2023-04-23T10:01:12;7.05;;;2.60;;
46719;SDS011;32452;51.382;-0.002;2023-04-23T10:03:59;6.47;;;2.83;;
46719;SDS011;32452;51.382;-0.002;2023-04-23T10:06:45;4.57;;;1.45;;
46719;SDS011;32452;51.382;-0.002;2023-04-23T10:09:52;5.30;;;1.40;;
46719;SDS011;32452;51.382;-0.002;2023-04-23T10:12:38;2.53;;;0.93;;
46719;SDS011;32452;51.382;-0.002;2023-04-23T10:15:38;5.95;;;0.70;;
46719;SDS011;32452;51.382;-0.002;2023-04-23T10:18:23;5.18;;;1.20;;
46719;SDS011;32452;51.382;-0.002;2023-04-23T10:21:09;5.80;;;1.40;;
46719;SDS011;32452;51.382;-0.002;2023-04-23T10:23:56;2.92;;;0.88;;
46719;SDS011;32452;51.382;-0.002;2023-04-23T10:26:45;4.15;;;1.02;;
46719;SDS011;32452;51.382;-0.002;2023-04-23T10:29:32;3.08;;;1.05;;
46719;SDS011;32452;51.382;-0.002;2023-04-23T10:32:20;4.03;;;0.88;;
46719;SDS011;32452;51.382;-0.002;2023-04-23T10:35:06;6.05;;;1.25;;
46719;SDS011;32452;51.382;-0.002;2023-04-23T10:37:53;2.63;;;0.85;;
46719;SDS011;32452;51.382;-0.002;2023-04-23T10:40:39;2.28;;;0.60;;
46719;SDS011;32452;51.382;-0.002;2023-04-23T10:43:29;3.10;;;0.90;;
46719;SDS011;32452;51.382;-0.002;2023-04-23T10:46:27;3.33;;;1.00;;
46719;SDS011;32452;51.382;-0.002;2023-04-23T10:49:14;3.05;;;0.90;;
46719;SDS011;32452;51.382;-0.002;2023-04-23T10:52:01;6.78;;;1.45;;
46719;SDS011;32452;51.382;-0.002;2023-04-23T10:55:17;2.28;;;0.95;;
46719;SDS011;32452;51.382;-0.002;2023-04-23T10:58:10;4.63;;;1.88;;
46719;SDS011;32452;51.382;-0.002;2023-04-23T11:00:56;7.28;;;2.03;;
46719;SDS011;32452;51.382;-0.002;2023-04-23T11:03:42;9.07;;;2.58;;
46719;SDS011;32452;51.382;-0.002;2023-04-23T11:15:15;7.68;;;2.70;;
46719;SDS011;32452;51.382;-0.002;2023-04-23T11:18:03;8.60;;;3.03;;
46719;SDS011;32452;51.382;-0.002;2023-04-23T11:20:48;6.30;;;2.97;;
46719;SDS011;32452;51.382;-0.002;2023-04-23T11:23:35;7.13;;;3.30;;
46719;SDS011;32452;51.382;-0.002;2023-04-23T11:26:21;7.53;;;2.70;;
46719;SDS011;32452;51.382;-0.002;2023-04-23T11:29:11;6.45;;;2.80;;
46719;SDS011;32452;51.382;-0.002;2023-04-23T11:31:59;6.63;;;2.70;;
46719;SDS011;32452;51.382;-0.002;2023-04-23T11:34:49;6.07;;;2.63;;
46719;SDS011;32452;51.382;-0.002;2023-04-23T11:37:38;9.20;;;2.58;;
46719;SDS011;32452;51.382;-0.002;2023-04-23T11:40:26;5.07;;;2.22;;
46719;SDS011;32452;51.382;-0.002;2023-04-23T11:43:17;5.90;;;2.50;;
46719;SDS011;32452;51.382;-0.002;2023-04-23T11:46:03;6.20;;;2.38;;
46719;SDS011;32452;51.382;-0.002;2023-04-23T11:48:50;8.73;;;2.30;;
46719;SDS011;32452;51.382;-0.002;2023-04-23T11:51:39;7.43;;;2.60;;
46719;SDS011;32452;51.382;-0.002;2023-04-23T11:54:27;4.05;;;2.20;;
46719;SDS011;32452;51.382;-0.002;2023-04-23T11:57:13;4.57;;;1.80;;
46719;SDS011;32452;51.382;-0.002;2023-04-23T11:59:59;6.72;;;2.42;;
46719;SDS011;32452;51.382;-0.002;2023-04-23T12:02:48;5.20;;;1.98;;
46719;SDS011;32452;51.382;-0.002;2023-04-23T12:05:39;4.35;;;2.17;;
46719;SDS011;32452;51.382;-0.002;2023-04-23T12:08:30;5.57;;;1.85;;
46719;SDS011;32452;51.382;-0.002;2023-04-23T12:11:20;5.28;;;1.83;;
46719;SDS011;32452;51.382;-0.002;2023-04-23T12:14:08;2.58;;;1.38;;
46719;SDS011;32452;51.382;-0.002;2023-04-23T12:16:56;5.78;;;1.98;;
46719;SDS011;32452;51.382;-0.002;2023-04-23T12:19:43;3.13;;;1.70;;
46719;SDS011;32452;51.382;-0.002;2023-04-23T12:22:32;2.65;;;1.50;;
46719;SDS011;32452;51.382;-0.002;2023-04-23T12:25:25;3.88;;;1.50;;
46719;SDS011;32452;51.382;-0.002;2023-04-23T12:28:10;4.55;;;1.30;;
46719;SDS011;32452;51.382;-0.002;2023-04-23T12:35:00;4.20;;;2.13;;
46719;SDS011;32452;51.382;-0.002;2023-04-23T12:37:46;5.35;;;2.50;;
46719;SDS011;32452;51.382;-0.002;2023-04-23T12:40:37;4.68;;;2.00;;
46719;SDS011;32452;51.382;-0.002;2023-04-23T12:43:42;6.70;;;1.90;;
46719;SDS011;32452;51.382;-0.002;2023-04-23T12:47:25;3.85;;;2.30;;
46719;SDS011;32452;51.382;-0.002;2023-04-23T12:50:10;5.93;;;2.10;;
46719;SDS011;32452;51.382;-0.002;2023-04-23T12:53:03;4.40;;;2.08;;
46719;SDS011;32452;51.382;-0.002;2023-04-23T12:56:16;6.68;;;2.30;;
46719;SDS011;32452;51.382;-0.002;2023-04-23T12:59:08;4.32;;;2.33;;
46719;SDS011;32452;51.382;-0.002;2023-04-23T13:01:54;7.00;;;2.70;;
46719;SDS011;32452;51.382;-0.002;2023-04-23T13:04:40;6.68;;;2.60;;
46719;SDS011;32452;51.382;-0.002;2023-04-23T13:07:26;5.75;;;2.35;;
46719;SDS011;32452;51.382;-0.002;2023-04-23T13:10:12;6.95;;;2.53;;
46719;SDS011;32452;51.382;-0.002;2023-04-23T13:12:57;3.03;;;1.92;;
46719;SDS011;32452;51.382;-0.002;2023-04-23T13:15:43;4.28;;;1.70;;
46719;SDS011;32452;51.382;-0.002;2023-04-23T13:18:29;7.43;;;2.00;;
46719;SDS011;32452;51.382;-0.002;2023-04-23T13:21:14;4.40;;;2.20;;
46719;SDS011;32452;51.382;-0.002;2023-04-23T13:24:00;3.35;;;2.13;;
46719;SDS011;32452;51.382;-0.002;2023-04-23T13:26:46;4.38;;;1.90;;
46719;SDS011;32452;51.382;-0.002;2023-04-23T13:29:32;3.13;;;2.05;;
46719;SDS011;32452;51.382;-0.002;2023-04-23T13:32:18;3.90;;;1.80;;
46719;SDS011;32452;51.382;-0.002;2023-04-23T13:35:06;3.45;;;1.67;;
46719;SDS011;32452;51.382;-0.002;2023-04-23T13:37:52;4.80;;;1.80;;
46719;SDS011;32452;51.382;-0.002;2023-04-23T13:40:38;3.00;;;1.65;;
46719;SDS011;32452;51.382;-0.002;2023-04-23T13:43:24;2.25;;;1.38;;
46719;SDS011;32452;51.382;-0.002;2023-04-23T13:46:09;2.58;;;1.30;;
46719;SDS011;32452;51.382;-0.002;2023-04-23T13:48:55;3.63;;;1.17;;
46719;SDS011;32452;51.382;-0.002;2023-04-23T13:51:41;1.15;;;0.73;;
46719;SDS011;32452;51.382;-0.002;2023-04-23T13:54:27;3.10;;;0.93;;
46719;SDS011;32452;51.382;-0.002;2023-04-23T13:57:14;5.10;;;0.88;;
46719;SDS011;32452;51.382;-0.002;2023-04-23T13:59:59;3.33;;;1.08;;
46719;SDS011;32452;51.382;-0.002;2023-04-23T14:02:45;4.13;;;0.98;;
46719;SDS011;32452;51.382;-0.002;2023-04-23T14:05:31;2.53;;;1.10;;
46719;SDS011;32452;51.382;-0.002;2023-04-23T14:08:17;3.05;;;1.42;;
46719;SDS011;32452;51.382;-0.002;2023-04-23T14:11:03;1.50;;;1.15;;
46719;SDS011;32452;51.382;-0.002;2023-04-23T14:13:49;4.20;;;1.70;;
46719;SDS011;32452;51.382;-0.002;2023-04-23T14:16:35;3.33;;;1.73;;
46719;SDS011;32452;51.382;-0.002;2023-04-23T14:19:21;4.05;;;1.60;;
46719;SDS011;32452;51.382;-0.002;2023-04-23T14:22:07;5.18;;;1.70;;
46719;SDS011;32452;51.382;-0.002;2023-04-23T14:24:55;3.13;;;1.45;;
46719;SDS011;32452;51.382;-0.002;2023-04-23T14:27:46;2.60;;;1.80;;
46719;SDS011;32452;51.382;-0.002;2023-04-23T14:30:55;3.20;;;1.80;;
46719;SDS011;32452;51.382;-0.002;2023-04-23T14:34:19;4.00;;;2.08;;
46719;SDS011;32452;51.382;-0.002;2023-04-23T14:37:06;4.50;;;2.40;;
46719;SDS011;32452;51.382;-0.002;2023-04-23T14:39:52;6.28;;;2.25;;
46719;SDS011;32452;51.382;-0.002;2023-04-23T14:42:40;2.88;;;2.10;;
46719;SDS011;32452;51.382;-0.002;2023-04-23T14:45:26;4.72;;;2.80;;
46719;SDS011;32452;51.382;-0.002;2023-04-23T14:48:15;5.03;;;3.47;;
46719;SDS011;32452;51.382;-0.002;2023-04-23T14:51:05;4.20;;;2.67;;
46719;SDS011;32452;51.382;-0.002;2023-04-23T14:59:54;6.53;;;2.97;;
46719;SDS011;32452;51.382;-0.002;2023-04-23T15:02:40;5.90;;;3.15;;
46719;SDS011;32452;51.382;-0.002;2023-04-23T15:05:26;4.18;;;2.88;;
46719;SDS011;32452;51.382;-0.002;2023-04-23T15:08:13;5.85;;;3.40;;
46719;SDS011;32452;51.382;-0.002;2023-04-23T15:10:59;5.40;;;3.40;;
46719;SDS011;32452;51.382;-0.002;2023-04-23T15:13:54;8.32;;;3.92;;
46719;SDS011;32452;51.382;-0.002;2023-04-23T15:16:50;7.60;;;3.97;;
46719;SDS011;32452;51.382;-0.002;2023-04-23T15:19:36;6.57;;;4.07;;
46719;SDS011;32452;51.382;-0.002;2023-04-23T15:22:22;8.13;;;4.30;;
46719;SDS011;32452;51.382;-0.002;2023-04-23T15:25:08;7.07;;;4.20;;
46719;SDS011;32452;51.382;-0.002;2023-04-23T15:27:54;10.45;;;4.72;;
46719;SDS011;32452;51.382;-0.002;2023-04-23T15:30:42;6.45;;;3.60;;
46719;SDS011;32452;51.382;-0.002;2023-04-23T15:33:28;6.13;;;3.63;;
46719;SDS011;32452;51.382;-0.002;2023-04-23T15:36:14;8.75;;;3.95;;
46719;SDS011;32452;51.382;-0.002;2023-04-23T15:39:00;9.68;;;4.07;;
46719;SDS011;32452;51.382;-0.002;2023-04-23T15:41:46;8.65;;;4.20;;
46719;SDS011;32452;51.382;-0.002;2023-04-23T15:44:32;7.32;;;3.88;;
46719;SDS011;32452;51.382;-0.002;2023-04-23T15:47:18;7.43;;;4.07;;
46719;SDS011;32452;51.382;-0.002;2023-04-23T15:50:06;7.63;;;4.57;;
46719;SDS011;32452;51.382;-0.002;2023-04-23T15:52:53;9.57;;;4.40;;
46719;SDS011;32452;51.382;-0.002;2023-04-23T15:55:41;6.65;;;3.50;;
46719;SDS011;32452;51.382;-0.002;2023-04-23T15:58:27;9.80;;;4.25;;
46719;SDS011;32452;51.382;-0.002;2023-04-23T16:01:12;8.45;;;4.00;;
46719;SDS011;32452;51.382;-0.002;2023-04-23T16:03:58;8.05;;;3.95;;
46719;SDS011;32452;51.382;-0.002;2023-04-23T16:06:54;14.70;;;5.20;;
46719;SDS011;32452;51.382;-0.002;2023-04-23T16:09:40;9.10;;;3.78;;
46719;SDS011;32452;51.382;-0.002;2023-04-23T16:12:26;8.00;;;3.97;;
46719;SDS011;32452;51.382;-0.002;2023-04-23T16:15:12;6.85;;;3.72;;
46719;SDS011;32452;51.382;-0.002;2023-04-23T16:17:57;6.28;;;3.85;;
46719;SDS011;32452;51.382;-0.002;2023-04-23T16:20:44;7.28;;;4.03;;
46719;SDS011;32452;51.382;-0.002;2023-04-23T16:23:30;8.45;;;4.38;;
46719;SDS011;32452;51.382;-0.002;2023-04-23T16:26:16;7.45;;;3.92;;
46719;SDS011;32452;51.382;-0.002;2023-04-23T16:29:02;7.32;;;3.25;;
46719;SDS011;32452;51.382;-0.002;2023-04-23T16:32:05;6.68;;;3.70;;
46719;SDS011;32452;51.382;-0.002;2023-04-23T16:34:51;7.55;;;3.13;;
46719;SDS011;32452;51.382;-0.002;2023-04-23T16:37:38;7.00;;;3.90;;
46719;SDS011;32452;51.382;-0.002;2023-04-23T16:40:23;9.82;;;4.05;;
46719;SDS011;32452;51.382;-0.002;2023-04-23T16:43:09;6.05;;;3.30;;
46719;SDS011;32452;51.382;-0.002;2023-04-23T16:45:58;6.20;;;3.65;;
46719;SDS011;32452;51.382;-0.002;2023-04-23T16:48:45;5.90;;;3.28;;
46719;SDS011;32452;51.382;-0.002;2023-04-23T16:51:31;5.85;;;3.33;;
46719;SDS011;32452;51.382;-0.002;2023-04-23T16:54:16;8.73;;;3.40;;
46719;SDS011;32452;51.382;-0.002;2023-04-23T16:57:02;5.63;;;3.08;;
46719;SDS011;32452;51.382;-0.002;2023-04-23T16:59:49;6.53;;;3.75;;